sensor_id;sensor_type;location;lat;lon;timestamp;temperature;humidity
23149;DHT22;11743;51.228;22.498;2022-08-16T00:00:27;21.10;99.90
23149;DHT22;11743;51.228;22.498;2022-08-16T00:00:59;21.10;99.90
23149;DHT22;11743;51.228;22.498;2022-08-16T00:01:22;21.10;99.90
23149;DHT22;11743;51.228;22.498;2022-08-16T00:01:49;21.10;99.90
23149;DHT22;11743;51.228;22.498;2022-08-16T00:02:11;21.10;99.90
23149;DHT22;11743;51.228;22.498;2022-08-16T00:02:34;21.10;99.90
23149;DHT22;11743;51.228;22.498;2022-08-16T00:02:57;21.10;99.90
23149;DHT22;11743;51.228;22.498;2022-08-16T00:03:19;21.10;99.90
23149;DHT22;11743;51.228;22.498;2022-08-16T00:03:44;21.10;99.90
23149;DHT22;11743;51.228;22.498;2022-08-16T00:04:07;21.10;99.90
23149;DHT22;11743;51.228;22.498;2022-08-16T00:04:30;21.10;99.90
23149;DHT22;11743;51.228;22.498;2022-08-16T00:04:53;21.10;99.90
23149;DHT22;11743;51.228;22.498;2022-08-16T00:05:22;21.10;99.90
23149;DHT22;11743;51.228;22.498;2022-08-16T00:05:45;21.10;99.90
23149;DHT22;11743;51.228;22.498;2022-08-16T00:06:09;21.10;99.90
23149;DHT22;11743;51.228;22.498;2022-08-16T00:06:36;21.00;99.90
23149;DHT22;11743;51.228;22.498;2022-08-16T00:07:01;21.00;99.90
23149;DHT22;11743;51.228;22.498;2022-08-16T00:07:23;21.00;99.90
23149;DHT22;11743;51.228;22.498;2022-08-16T00:07:50;21.00;99.90
23149;DHT22;11743;51.228;22.498;2022-08-16T00:08:18;21.00;99.90
23149;DHT22;11743;51.228;22.498;2022-08-16T00:08:58;21.00;99.90
23149;DHT22;11743;51.228;22.498;2022-08-16T00:09:20;21.00;99.90
23149;DHT22;11743;51.228;22.498;2022-08-16T00:09:42;21.00;99.90
23149;DHT22;11743;51.228;22.498;2022-08-16T00:10:08;21.00;99.90
23149;DHT22;11743;51.228;22.498;2022-08-16T00:10:41;21.00;99.90
23149;DHT22;11743;51.228;22.498;2022-08-16T00:11:08;21.00;99.90
23149;DHT22;11743;51.228;22.498;2022-08-16T00:11:36;21.00;99.90
23149;DHT22;11743;51.228;22.498;2022-08-16T00:12:00;20.90;99.90
23149;DHT22;11743;51.228;22.498;2022-08-16T00:12:22;20.90;99.90
23149;DHT22;11743;51.228;22.498;2022-08-16T00:12:44;20.90;99.90
23149;DHT22;11743;51.228;22.498;2022-08-16T00:13:08;20.90;99.90
23149;DHT22;11743;51.228;22.498;2022-08-16T00:13:30;20.90;99.90
23149;DHT22;11743;51.228;22.498;2022-08-16T00:14:06;20.90;99.90
23149;DHT22;11743;51.228;22.498;2022-08-16T00:14:31;20.90;99.90
23149;DHT22;11743;51.228;22.498;2022-08-16T00:14:55;20.90;99.90
23149;DHT22;11743;51.228;22.498;2022-08-16T00:15:35;20.90;99.90
23149;DHT22;11743;51.228;22.498;2022-08-16T00:16:12;20.80;99.90
23149;DHT22;11743;51.228;22.498;2022-08-16T00:16:55;20.90;99.90
23149;DHT22;11743;51.228;22.498;2022-08-16T00:17:32;20.90;99.90
23149;DHT22;11743;51.228;22.498;2022-08-16T00:18:16;20.90;99.90
23149;DHT22;11743;51.228;22.498;2022-08-16T00:18:42;20.90;99.90
23149;DHT22;11743;51.228;22.498;2022-08-16T00:19:04;20.80;99.90
23149;DHT22;11743;51.228;22.498;2022-08-16T00:19:30;20.80;99.90
23149;DHT22;11743;51.228;22.498;2022-08-16T00:20:03;20.80;99.90
23149;DHT22;11743;51.228;22.498;2022-08-16T00:20:33;20.80;99.90
23149;DHT22;11743;51.228;22.498;2022-08-16T00:20:55;20.80;99.90
23149;DHT22;11743;51.228;22.498;2022-08-16T00:21:17;20.80;99.90
23149;DHT22;11743;51.228;22.498;2022-08-16T00:21:39;20.80;99.90
23149;DHT22;11743;51.228;22.498;2022-08-16T00:22:01;20.80;99.90
23149;DHT22;11743;51.228;22.498;2022-08-16T00:22:36;20.80;99.90
23149;DHT22;11743;51.228;22.498;2022-08-16T00:23:03;20.80;99.90
23149;DHT22;11743;51.228;22.498;2022-08-16T00:23:26;20.80;99.90
23149;DHT22;11743;51.228;22.498;2022-08-16T00:23:56;20.80;99.90
23149;DHT22;11743;51.228;22.498;2022-08-16T00:24:18;20.70;99.90
23149;DHT22;11743;51.228;22.498;2022-08-16T00:24:53;20.80;99.90
23149;DHT22;11743;51.228;22.498;2022-08-16T00:25:17;20.70;99.90
23149;DHT22;11743;51.228;22.498;2022-08-16T00:25:39;20.80;99.90
23149;DHT22;11743;51.228;22.498;2022-08-16T00:26:21;20.80;99.90
23149;DHT22;11743;51.228;22.498;2022-08-16T00:27:03;20.80;99.90
23149;DHT22;11743;51.228;22.498;2022-08-16T00:27:25;20.80;99.90
23149;DHT22;11743;51.228;22.498;2022-08-16T00:27:52;20.70;99.90
23149;DHT22;11743;51.228;22.498;2022-08-16T00:28:14;20.80;99.90
23149;DHT22;11743;51.228;22.498;2022-08-16T00:28:36;20.80;99.90
23149;DHT22;11743;51.228;22.498;2022-08-16T00:29:00;20.80;99.90
23149;DHT22;11743;51.228;22.498;2022-08-16T00:29:22;20.80;99.90
23149;DHT22;11743;51.228;22.498;2022-08-16T00:29:44;20.80;99.90
23149;DHT22;11743;51.228;22.498;2022-08-16T00:30:10;20.70;99.90
23149;DHT22;11743;51.228;22.498;2022-08-16T00:30:49;20.70;99.90
23149;DHT22;11743;51.228;22.498;2022-08-16T00:31:11;20.70;99.90
23149;DHT22;11743;51.228;22.498;2022-08-16T00:31:35;20.70;99.90
23149;DHT22;11743;51.228;22.498;2022-08-16T00:32:22;20.70;99.90
23149;DHT22;11743;51.228;22.498;2022-08-16T00:32:46;20.70;99.90
23149;DHT22;11743;51.228;22.498;2022-08-16T00:33:10;20.70;99.90
23149;DHT22;11743;51.228;22.498;2022-08-16T00:33:32;20.70;99.90
23149;DHT22;11743;51.228;22.498;2022-08-16T00:33:54;20.70;99.90
23149;DHT22;11743;51.228;22.498;2022-08-16T00:34:17;20.70;99.90
23149;DHT22;11743;51.228;22.498;2022-08-16T00:34:39;20.70;99.90
23149;DHT22;11743;51.228;22.498;2022-08-16T00:35:17;20.70;99.90
23149;DHT22;11743;51.228;22.498;2022-08-16T00:35:41;20.70;99.90
23149;DHT22;11743;51.228;22.498;2022-08-16T00:36:04;20.70;99.90
23149;DHT22;11743;51.228;22.498;2022-08-16T00:36:29;20.70;99.90
23149;DHT22;11743;51.228;22.498;2022-08-16T00:36:51;20.70;99.90
23149;DHT22;11743;51.228;22.498;2022-08-16T00:37:17;20.60;99.90
23149;DHT22;11743;51.228;22.498;2022-08-16T00:37:42;20.60;99.90
23149;DHT22;11743;51.228;22.498;2022-08-16T00:38:19;20.60;99.90
23149;DHT22;11743;51.228;22.498;2022-08-16T00:39:02;20.60;99.90
23149;DHT22;11743;51.228;22.498;2022-08-16T00:39:24;20.60;99.90
23149;DHT22;11743;51.228;22.498;2022-08-16T00:39:47;20.60;99.90
23149;DHT22;11743;51.228;22.498;2022-08-16T00:40:26;20.70;99.90
23149;DHT22;11743;51.228;22.498;2022-08-16T00:40:57;20.70;99.90
23149;DHT22;11743;51.228;22.498;2022-08-16T00:41:27;20.70;99.90
23149;DHT22;11743;51.228;22.498;2022-08-16T00:41:50;20.60;99.90
23149;DHT22;11743;51.228;22.498;2022-08-16T00:42:11;20.60;99.90
23149;DHT22;11743;51.228;22.498;2022-08-16T00:42:33;20.60;99.90
23149;DHT22;11743;51.228;22.498;2022-08-16T00:42:56;20.60;99.90
23149;DHT22;11743;51.228;22.498;2022-08-16T00:43:22;20.60;99.90
23149;DHT22;11743;51.228;22.498;2022-08-16T00:43:45;20.60;99.90
23149;DHT22;11743;51.228;22.498;2022-08-16T00:44:08;20.60;99.90
23149;DHT22;11743;51.228;22.498;2022-08-16T00:44:32;20.60;99.90
23149;DHT22;11743;51.228;22.498;2022-08-16T00:45:00;20.70;99.90
23149;DHT22;11743;51.228;22.498;2022-08-16T00:46:38;20.50;99.90
23149;DHT22;11743;51.228;22.498;2022-08-16T00:47:25;20.50;99.90
23149;DHT22;11743;51.228;22.498;2022-08-16T00:47:50;20.50;99.90
23149;DHT22;11743;51.228;22.498;2022-08-16T00:48:14;20.50;99.90
23149;DHT22;11743;51.228;22.498;2022-08-16T00:48:53;20.50;99.90
23149;DHT22;11743;51.228;22.498;2022-08-16T00:49:17;20.50;99.90
23149;DHT22;11743;51.228;22.498;2022-08-16T00:49:40;20.50;99.90
23149;DHT22;11743;51.228;22.498;2022-08-16T00:50:23;20.50;99.90
23149;DHT22;11743;51.228;22.498;2022-08-16T00:50:57;20.50;99.90
23149;DHT22;11743;51.228;22.498;2022-08-16T00:51:23;20.50;99.90
23149;DHT22;11743;51.228;22.498;2022-08-16T00:51:51;20.50;99.90
23149;DHT22;11743;51.228;22.498;2022-08-16T00:52:16;20.50;99.90
23149;DHT22;11743;51.228;22.498;2022-08-16T00:52:51;20.50;99.90
23149;DHT22;11743;51.228;22.498;2022-08-16T00:53:16;20.50;99.90
23149;DHT22;11743;51.228;22.498;2022-08-16T00:53:38;20.50;99.90
23149;DHT22;11743;51.228;22.498;2022-08-16T00:54:00;20.40;99.90
23149;DHT22;11743;51.228;22.498;2022-08-16T00:54:25;20.50;99.90
23149;DHT22;11743;51.228;22.498;2022-08-16T00:54:48;20.50;99.90
23149;DHT22;11743;51.228;22.498;2022-08-16T00:55:13;20.40;99.90
23149;DHT22;11743;51.228;22.498;2022-08-16T00:55:40;20.40;99.90
23149;DHT22;11743;51.228;22.498;2022-08-16T00:56:07;20.40;99.90
23149;DHT22;11743;51.228;22.498;2022-08-16T00:56:50;20.40;99.90
23149;DHT22;11743;51.228;22.498;2022-08-16T00:57:19;20.40;99.90
23149;DHT22;11743;51.228;22.498;2022-08-16T00:57:45;20.40;99.90
23149;DHT22;11743;51.228;22.498;2022-08-16T00:58:25;20.40;99.90
23149;DHT22;11743;51.228;22.498;2022-08-16T00:58:56;20.40;99.90
23149;DHT22;11743;51.228;22.498;2022-08-16T00:59:24;20.40;99.90
23149;DHT22;11743;51.228;22.498;2022-08-16T00:59:47;20.40;99.90
23149;DHT22;11743;51.228;22.498;2022-08-16T01:00:19;20.40;99.90
23149;DHT22;11743;51.228;22.498;2022-08-16T01:00:45;20.40;99.90
23149;DHT22;11743;51.228;22.498;2022-08-16T01:01:16;20.30;99.90
23149;DHT22;11743;51.228;22.498;2022-08-16T01:01:38;20.30;99.90
23149;DHT22;11743;51.228;22.498;2022-08-16T01:02:02;20.30;99.90
23149;DHT22;11743;51.228;22.498;2022-08-16T01:02:45;20.30;99.90
23149;DHT22;11743;51.228;22.498;2022-08-16T01:03:12;20.30;99.90
23149;DHT22;11743;51.228;22.498;2022-08-16T01:03:36;20.30;99.90
23149;DHT22;11743;51.228;22.498;2022-08-16T01:04:03;20.30;99.90
23149;DHT22;11743;51.228;22.498;2022-08-16T01:04:47;20.30;99.90
23149;DHT22;11743;51.228;22.498;2022-08-16T01:05:30;20.30;99.90
23149;DHT22;11743;51.228;22.498;2022-08-16T01:05:54;20.30;99.90
23149;DHT22;11743;51.228;22.498;2022-08-16T01:06:18;20.30;99.90
23149;DHT22;11743;51.228;22.498;2022-08-16T01:07:03;20.30;99.90
23149;DHT22;11743;51.228;22.498;2022-08-16T01:07:27;20.30;99.90
23149;DHT22;11743;51.228;22.498;2022-08-16T01:08:12;20.30;99.90
23149;DHT22;11743;51.228;22.498;2022-08-16T01:08:56;20.30;99.90
23149;DHT22;11743;51.228;22.498;2022-08-16T01:09:21;20.30;99.90
23149;DHT22;11743;51.228;22.498;2022-08-16T01:09:43;20.30;99.90
23149;DHT22;11743;51.228;22.498;2022-08-16T01:10:06;20.20;99.90
23149;DHT22;11743;51.228;22.498;2022-08-16T01:10:39;20.20;99.90
23149;DHT22;11743;51.228;22.498;2022-08-16T01:11:04;20.30;99.90
23149;DHT22;11743;51.228;22.498;2022-08-16T01:11:27;20.30;99.90
23149;DHT22;11743;51.228;22.498;2022-08-16T01:11:50;20.20;99.90
23149;DHT22;11743;51.228;22.498;2022-08-16T01:12:15;20.20;99.90
23149;DHT22;11743;51.228;22.498;2022-08-16T01:12:47;20.20;99.90
23149;DHT22;11743;51.228;22.498;2022-08-16T01:13:16;20.20;99.90
23149;DHT22;11743;51.228;22.498;2022-08-16T01:13:40;20.20;99.90
23149;DHT22;11743;51.228;22.498;2022-08-16T01:14:17;20.20;99.90
23149;DHT22;11743;51.228;22.498;2022-08-16T01:14:50;20.20;99.90
23149;DHT22;11743;51.228;22.498;2022-08-16T01:15:16;20.20;99.90
23149;DHT22;11743;51.228;22.498;2022-08-16T01:15:56;20.20;99.90
23149;DHT22;11743;51.228;22.498;2022-08-16T01:16:23;20.20;99.90
23149;DHT22;11743;51.228;22.498;2022-08-16T01:16:49;20.20;99.90
23149;DHT22;11743;51.228;22.498;2022-08-16T01:17:13;20.20;99.90
23149;DHT22;11743;51.228;22.498;2022-08-16T01:17:36;20.20;99.90
23149;DHT22;11743;51.228;22.498;2022-08-16T01:18:04;20.20;99.90
23149;DHT22;11743;51.228;22.498;2022-08-16T01:18:34;20.20;99.90
23149;DHT22;11743;51.228;22.498;2022-08-16T01:19:51;20.20;99.90
23149;DHT22;11743;51.228;22.498;2022-08-16T01:20:20;20.20;99.90
23149;DHT22;11743;51.228;22.498;2022-08-16T01:22:49;20.20;99.90
23149;DHT22;11743;51.228;22.498;2022-08-16T01:23:21;20.10;99.90
23149;DHT22;11743;51.228;22.498;2022-08-16T01:24:09;20.10;99.90
23149;DHT22;11743;51.228;22.498;2022-08-16T01:24:58;20.10;99.90
23149;DHT22;11743;51.228;22.498;2022-08-16T01:25:44;20.10;99.90
23149;DHT22;11743;51.228;22.498;2022-08-16T01:26:28;20.10;99.90
23149;DHT22;11743;51.228;22.498;2022-08-16T01:27:38;20.10;99.90
23149;DHT22;11743;51.228;22.498;2022-08-16T01:27:57;20.10;99.90
23149;DHT22;11743;51.228;22.498;2022-08-16T01:28:24;20.10;99.90
23149;DHT22;11743;51.228;22.498;2022-08-16T01:28:53;20.10;99.90
23149;DHT22;11743;51.228;22.498;2022-08-16T01:29:24;20.10;99.90
23149;DHT22;11743;51.228;22.498;2022-08-16T01:30:17;20.10;99.90
23149;DHT22;11743;51.228;22.498;2022-08-16T01:30:51;20.10;99.90
23149;DHT22;11743;51.228;22.498;2022-08-16T01:31:15;20.10;99.90
23149;DHT22;11743;51.228;22.498;2022-08-16T01:31:39;20.10;99.90
23149;DHT22;11743;51.228;22.498;2022-08-16T01:32:03;20.10;99.90
23149;DHT22;11743;51.228;22.498;2022-08-16T01:32:32;20.10;99.90
23149;DHT22;11743;51.228;22.498;2022-08-16T01:32:59;20.00;99.90
23149;DHT22;11743;51.228;22.498;2022-08-16T01:33:36;20.00;99.90
23149;DHT22;11743;51.228;22.498;2022-08-16T01:34:05;20.00;99.90
23149;DHT22;11743;51.228;22.498;2022-08-16T01:34:27;20.00;99.90
23149;DHT22;11743;51.228;22.498;2022-08-16T01:34:49;20.00;99.90
23149;DHT22;11743;51.228;22.498;2022-08-16T01:35:23;20.00;99.90
23149;DHT22;11743;51.228;22.498;2022-08-16T01:36:01;20.00;99.90
23149;DHT22;11743;51.228;22.498;2022-08-16T01:36:33;20.00;99.90
23149;DHT22;11743;51.228;22.498;2022-08-16T01:37:01;20.00;99.90
23149;DHT22;11743;51.228;22.498;2022-08-16T01:37:24;20.00;99.90
23149;DHT22;11743;51.228;22.498;2022-08-16T01:37:50;20.00;99.90
23149;DHT22;11743;51.228;22.498;2022-08-16T01:38:34;20.00;99.90
23149;DHT22;11743;51.228;22.498;2022-08-16T01:38:58;20.00;99.90
23149;DHT22;11743;51.228;22.498;2022-08-16T01:39:21;20.00;99.90
23149;DHT22;11743;51.228;22.498;2022-08-16T01:39:43;20.00;99.90
23149;DHT22;11743;51.228;22.498;2022-08-16T01:40:06;19.20;99.90
23149;DHT22;11743;51.228;22.498;2022-08-16T01:40:29;20.00;99.90
23149;DHT22;11743;51.228;22.498;2022-08-16T01:40:55;20.00;99.90
23149;DHT22;11743;51.228;22.498;2022-08-16T01:41:28;19.80;99.90
23149;DHT22;11743;51.228;22.498;2022-08-16T01:41:51;20.10;99.90
23149;DHT22;11743;51.228;22.498;2022-08-16T01:42:14;19.90;99.90
23149;DHT22;11743;51.228;22.498;2022-08-16T01:42:41;19.90;99.90
23149;DHT22;11743;51.228;22.498;2022-08-16T01:43:08;19.90;99.90
23149;DHT22;11743;51.228;22.498;2022-08-16T01:43:31;19.90;99.90
23149;DHT22;11743;51.228;22.498;2022-08-16T01:43:54;19.90;99.90
23149;DHT22;11743;51.228;22.498;2022-08-16T01:44:21;19.90;99.90
23149;DHT22;11743;51.228;22.498;2022-08-16T01:44:58;19.90;99.90
23149;DHT22;11743;51.228;22.498;2022-08-16T01:45:20;19.90;99.90
23149;DHT22;11743;51.228;22.498;2022-08-16T01:45:43;19.90;99.90
23149;DHT22;11743;51.228;22.498;2022-08-16T01:46:18;19.90;99.90
23149;DHT22;11743;51.228;22.498;2022-08-16T01:47:00;19.90;99.90
23149;DHT22;11743;51.228;22.498;2022-08-16T01:47:22;19.90;99.90
23149;DHT22;11743;51.228;22.498;2022-08-16T01:47:47;19.90;99.90
23149;DHT22;11743;51.228;22.498;2022-08-16T01:48:12;19.90;99.90
23149;DHT22;11743;51.228;22.498;2022-08-16T01:48:41;19.90;99.90
23149;DHT22;11743;51.228;22.498;2022-08-16T01:49:38;19.90;99.90
23149;DHT22;11743;51.228;22.498;2022-08-16T01:50:21;19.90;99.90
23149;DHT22;11743;51.228;22.498;2022-08-16T01:51:03;19.80;99.90
23149;DHT22;11743;51.228;22.498;2022-08-16T01:51:39;19.80;99.90
23149;DHT22;11743;51.228;22.498;2022-08-16T01:52:10;19.80;99.90
23149;DHT22;11743;51.228;22.498;2022-08-16T01:52:50;19.80;99.90
23149;DHT22;11743;51.228;22.498;2022-08-16T01:53:14;19.80;99.90
23149;DHT22;11743;51.228;22.498;2022-08-16T01:53:36;19.80;99.90
23149;DHT22;11743;51.228;22.498;2022-08-16T01:54:01;19.80;99.90
23149;DHT22;11743;51.228;22.498;2022-08-16T01:54:24;19.70;99.90
23149;DHT22;11743;51.228;22.498;2022-08-16T01:54:51;19.80;99.90
23149;DHT22;11743;51.228;22.498;2022-08-16T01:55:16;19.80;99.90
23149;DHT22;11743;51.228;22.498;2022-08-16T01:55:39;19.80;99.90
23149;DHT22;11743;51.228;22.498;2022-08-16T01:56:02;19.80;99.90
23149;DHT22;11743;51.228;22.498;2022-08-16T01:56:25;19.80;99.90
23149;DHT22;11743;51.228;22.498;2022-08-16T01:56:47;19.80;99.90
23149;DHT22;11743;51.228;22.498;2022-08-16T01:57:09;19.80;99.90
23149;DHT22;11743;51.228;22.498;2022-08-16T01:57:33;19.80;99.90
23149;DHT22;11743;51.228;22.498;2022-08-16T01:57:57;19.80;99.90
23149;DHT22;11743;51.228;22.498;2022-08-16T01:58:20;19.80;99.90
23149;DHT22;11743;51.228;22.498;2022-08-16T01:58:43;19.80;99.90
23149;DHT22;11743;51.228;22.498;2022-08-16T01:59:10;19.80;99.90
23149;DHT22;11743;51.228;22.498;2022-08-16T01:59:38;19.80;99.90
23149;DHT22;11743;51.228;22.498;2022-08-16T02:00:07;19.80;99.90
23149;DHT22;11743;51.228;22.498;2022-08-16T02:00:39;19.80;99.90
23149;DHT22;11743;51.228;22.498;2022-08-16T02:01:03;19.80;99.90
23149;DHT22;11743;51.228;22.498;2022-08-16T02:01:29;19.80;99.90
23149;DHT22;11743;51.228;22.498;2022-08-16T02:01:53;19.80;99.90
23149;DHT22;11743;51.228;22.498;2022-08-16T02:02:21;19.80;99.90
23149;DHT22;11743;51.228;22.498;2022-08-16T02:02:49;19.80;99.90
23149;DHT22;11743;51.228;22.498;2022-08-16T02:03:14;19.80;99.90
23149;DHT22;11743;51.228;22.498;2022-08-16T02:03:36;19.80;99.90
23149;DHT22;11743;51.228;22.498;2022-08-16T02:04:01;19.80;99.90
23149;DHT22;11743;51.228;22.498;2022-08-16T02:04:32;19.70;99.90
23149;DHT22;11743;51.228;22.498;2022-08-16T02:05:15;19.80;99.90
23149;DHT22;11743;51.228;22.498;2022-08-16T02:05:39;19.70;99.90
23149;DHT22;11743;51.228;22.498;2022-08-16T02:06:12;19.70;99.90
23149;DHT22;11743;51.228;22.498;2022-08-16T02:06:54;19.70;99.90
23149;DHT22;11743;51.228;22.498;2022-08-16T02:07:17;19.70;99.90
23149;DHT22;11743;51.228;22.498;2022-08-16T02:07:44;19.70;99.90
23149;DHT22;11743;51.228;22.498;2022-08-16T02:08:08;19.70;99.90
23149;DHT22;11743;51.228;22.498;2022-08-16T02:08:49;19.70;99.90
23149;DHT22;11743;51.228;22.498;2022-08-16T02:09:13;19.70;99.90
23149;DHT22;11743;51.228;22.498;2022-08-16T02:09:39;19.70;99.90
23149;DHT22;11743;51.228;22.498;2022-08-16T02:10:01;19.70;99.90
23149;DHT22;11743;51.228;22.498;2022-08-16T02:10:24;19.70;99.90
23149;DHT22;11743;51.228;22.498;2022-08-16T02:10:46;19.70;99.90
23149;DHT22;11743;51.228;22.498;2022-08-16T02:11:08;19.70;99.90
23149;DHT22;11743;51.228;22.498;2022-08-16T02:11:31;19.70;99.90
23149;DHT22;11743;51.228;22.498;2022-08-16T02:12:14;19.70;99.90
23149;DHT22;11743;51.228;22.498;2022-08-16T02:12:57;19.70;99.90
23149;DHT22;11743;51.228;22.498;2022-08-16T02:13:21;19.50;99.90
23149;DHT22;11743;51.228;22.498;2022-08-16T02:13:48;19.70;99.90
23149;DHT22;11743;51.228;22.498;2022-08-16T02:14:15;19.70;99.90
23149;DHT22;11743;51.228;22.498;2022-08-16T02:14:39;19.70;99.90
23149;DHT22;11743;51.228;22.498;2022-08-16T02:15:02;19.70;99.90
23149;DHT22;11743;51.228;22.498;2022-08-16T02:15:27;19.70;99.90
23149;DHT22;11743;51.228;22.498;2022-08-16T02:15:50;19.70;99.90
23149;DHT22;11743;51.228;22.498;2022-08-16T02:16:13;19.70;99.90
23149;DHT22;11743;51.228;22.498;2022-08-16T02:16:39;19.70;99.90
23149;DHT22;11743;51.228;22.498;2022-08-16T02:17:08;19.70;99.90
23149;DHT22;11743;51.228;22.498;2022-08-16T02:17:30;19.70;99.90
23149;DHT22;11743;51.228;22.498;2022-08-16T02:17:57;19.70;99.90
23149;DHT22;11743;51.228;22.498;2022-08-16T02:18:21;19.70;99.90
23149;DHT22;11743;51.228;22.498;2022-08-16T02:18:44;19.70;99.90
23149;DHT22;11743;51.228;22.498;2022-08-16T02:19:07;19.70;99.90
23149;DHT22;11743;51.228;22.498;2022-08-16T02:19:39;19.70;99.90
23149;DHT22;11743;51.228;22.498;2022-08-16T02:20:21;19.70;99.90
23149;DHT22;11743;51.228;22.498;2022-08-16T02:20:49;19.70;99.90
23149;DHT22;11743;51.228;22.498;2022-08-16T02:21:14;19.70;99.90
23149;DHT22;11743;51.228;22.498;2022-08-16T02:21:37;19.60;99.90
23149;DHT22;11743;51.228;22.498;2022-08-16T02:22:22;19.60;99.90
23149;DHT22;11743;51.228;22.498;2022-08-16T02:23:07;19.60;99.90
23149;DHT22;11743;51.228;22.498;2022-08-16T02:23:30;19.60;99.90
23149;DHT22;11743;51.228;22.498;2022-08-16T02:23:53;19.60;99.90
23149;DHT22;11743;51.228;22.498;2022-08-16T02:24:16;19.60;99.90
23149;DHT22;11743;51.228;22.498;2022-08-16T02:24:58;19.60;99.90
23149;DHT22;11743;51.228;22.498;2022-08-16T02:25:22;19.60;99.90
23149;DHT22;11743;51.228;22.498;2022-08-16T02:26:05;19.60;99.90
23149;DHT22;11743;51.228;22.498;2022-08-16T02:26:28;19.50;99.90
23149;DHT22;11743;51.228;22.498;2022-08-16T02:26:55;19.50;99.90
23149;DHT22;11743;51.228;22.498;2022-08-16T02:27:18;19.50;99.90
23149;DHT22;11743;51.228;22.498;2022-08-16T02:27:42;19.50;99.90
23149;DHT22;11743;51.228;22.498;2022-08-16T02:28:11;19.50;99.90
23149;DHT22;11743;51.228;22.498;2022-08-16T02:28:37;19.50;99.90
23149;DHT22;11743;51.228;22.498;2022-08-16T02:29:07;19.50;99.90
23149;DHT22;11743;51.228;22.498;2022-08-16T02:29:33;19.50;99.90
23149;DHT22;11743;51.228;22.498;2022-08-16T02:29:55;19.40;99.90
23149;DHT22;11743;51.228;22.498;2022-08-16T02:30:29;19.40;99.90
23149;DHT22;11743;51.228;22.498;2022-08-16T02:31:08;19.40;99.90
23149;DHT22;11743;51.228;22.498;2022-08-16T02:31:31;19.40;99.90
23149;DHT22;11743;51.228;22.498;2022-08-16T02:32:15;19.40;99.90
23149;DHT22;11743;51.228;22.498;2022-08-16T02:32:58;19.40;99.90
23149;DHT22;11743;51.228;22.498;2022-08-16T02:33:22;19.40;99.90
23149;DHT22;11743;51.228;22.498;2022-08-16T02:34:03;19.40;99.90
23149;DHT22;11743;51.228;22.498;2022-08-16T02:34:27;19.30;99.90
23149;DHT22;11743;51.228;22.498;2022-08-16T02:35:01;19.30;99.90
23149;DHT22;11743;51.228;22.498;2022-08-16T02:35:24;19.30;99.90
23149;DHT22;11743;51.228;22.498;2022-08-16T02:35:46;19.30;99.90
23149;DHT22;11743;51.228;22.498;2022-08-16T02:36:16;19.30;99.90
23149;DHT22;11743;51.228;22.498;2022-08-16T02:36:58;19.40;99.90
23149;DHT22;11743;51.228;22.498;2022-08-16T02:37:20;19.30;99.90
23149;DHT22;11743;51.228;22.498;2022-08-16T02:37:43;19.30;99.90
23149;DHT22;11743;51.228;22.498;2022-08-16T02:38:13;19.30;99.90
23149;DHT22;11743;51.228;22.498;2022-08-16T02:38:36;19.30;99.90
23149;DHT22;11743;51.228;22.498;2022-08-16T02:39:00;19.30;99.90
23149;DHT22;11743;51.228;22.498;2022-08-16T02:39:23;19.30;99.90
23149;DHT22;11743;51.228;22.498;2022-08-16T02:39:50;19.30;99.90
23149;DHT22;11743;51.228;22.498;2022-08-16T02:40:15;19.20;99.90
23149;DHT22;11743;51.228;22.498;2022-08-16T02:40:37;19.30;99.90
23149;DHT22;11743;51.228;22.498;2022-08-16T02:41:02;19.30;99.90
23149;DHT22;11743;51.228;22.498;2022-08-16T02:41:32;19.30;99.90
23149;DHT22;11743;51.228;22.498;2022-08-16T02:42:00;19.30;99.90
23149;DHT22;11743;51.228;22.498;2022-08-16T02:42:21;19.30;99.90
23149;DHT22;11743;51.228;22.498;2022-08-16T02:42:45;19.20;99.90
23149;DHT22;11743;51.228;22.498;2022-08-16T02:43:10;19.20;99.90
23149;DHT22;11743;51.228;22.498;2022-08-16T02:43:33;19.20;99.90
23149;DHT22;11743;51.228;22.498;2022-08-16T02:43:58;19.20;99.90
23149;DHT22;11743;51.228;22.498;2022-08-16T02:44:21;19.20;99.90
23149;DHT22;11743;51.228;22.498;2022-08-16T02:44:47;19.20;99.90
23149;DHT22;11743;51.228;22.498;2022-08-16T02:45:10;19.20;99.90
23149;DHT22;11743;51.228;22.498;2022-08-16T02:45:32;19.20;99.90
23149;DHT22;11743;51.228;22.498;2022-08-16T02:45:58;19.20;99.90
23149;DHT22;11743;51.228;22.498;2022-08-16T02:46:20;19.20;99.90
23149;DHT22;11743;51.228;22.498;2022-08-16T02:46:54;19.20;99.90
23149;DHT22;11743;51.228;22.498;2022-08-16T02:47:16;19.20;99.90
23149;DHT22;11743;51.228;22.498;2022-08-16T02:47:46;19.20;99.90
23149;DHT22;11743;51.228;22.498;2022-08-16T02:48:28;19.20;99.90
23149;DHT22;11743;51.228;22.498;2022-08-16T02:48:51;19.20;99.90
23149;DHT22;11743;51.228;22.498;2022-08-16T02:49:13;19.20;99.90
23149;DHT22;11743;51.228;22.498;2022-08-16T02:49:37;19.20;99.90
23149;DHT22;11743;51.228;22.498;2022-08-16T02:50:19;19.20;99.90
23149;DHT22;11743;51.228;22.498;2022-08-16T02:51:04;19.20;99.90
23149;DHT22;11743;51.228;22.498;2022-08-16T02:51:32;19.20;99.90
23149;DHT22;11743;51.228;22.498;2022-08-16T02:51:56;19.20;99.90
23149;DHT22;11743;51.228;22.498;2022-08-16T02:52:19;19.20;99.90
23149;DHT22;11743;51.228;22.498;2022-08-16T02:52:50;19.20;99.90
23149;DHT22;11743;51.228;22.498;2022-08-16T02:53:13;19.20;99.90
23149;DHT22;11743;51.228;22.498;2022-08-16T02:53:43;19.20;99.90
23149;DHT22;11743;51.228;22.498;2022-08-16T02:54:06;19.20;99.90
23149;DHT22;11743;51.228;22.498;2022-08-16T02:54:28;19.20;99.90
23149;DHT22;11743;51.228;22.498;2022-08-16T02:54:51;19.20;99.90
23149;DHT22;11743;51.228;22.498;2022-08-16T02:55:17;19.20;99.90
23149;DHT22;11743;51.228;22.498;2022-08-16T02:55:59;19.20;99.90
23149;DHT22;11743;51.228;22.498;2022-08-16T02:56:22;18.60;99.90
23149;DHT22;11743;51.228;22.498;2022-08-16T02:56:53;19.20;99.90
23149;DHT22;11743;51.228;22.498;2022-08-16T02:57:17;19.20;99.90
23149;DHT22;11743;51.228;22.498;2022-08-16T02:57:41;19.10;99.90
23149;DHT22;11743;51.228;22.498;2022-08-16T02:58:15;19.10;99.90
23149;DHT22;11743;51.228;22.498;2022-08-16T02:58:38;19.10;99.90
23149;DHT22;11743;51.228;22.498;2022-08-16T02:59:00;19.20;99.90
23149;DHT22;11743;51.228;22.498;2022-08-16T02:59:22;19.10;99.90
23149;DHT22;11743;51.228;22.498;2022-08-16T02:59:44;19.10;99.90